»·PEaware :: SOLAR22 KEND-KEND

SOLAR22 :: KEND-KEND

FLIGHT INFORMATION

Flight Status: Arrived
Operator: Unknown
More flights by this operator :: More flights under this callsign
Pilot: Vance 33rd/8th FTS (21814)
Aircraft: BEECH AIRCRAFT T-6A TEXAN
(TEX2)
More flights by this aircraft type
Origin: KEND Vance AFB
United States
Destination: KEND Vance AFB
United States
More flights between these airports :: More routes between these airports
Route: NL WDG
File this flight plan on PilotEdge
Remarks:
Altitude:
(Current/Filed)
null
Speed:
(Current/Filed)
0kts
Departed: 29-Sep-22 12:10 PM
Arrived: 29-Sep-22 01:02 PM
Distance/Time
Traveled:
1nm/0:52
Distance/Time
To Go:
Arrived

Flight Plot

Page will automatically refresh every two minutes.

Flight plan parsing failed; only flown route is shown


Map Options




Map Legend


Flown Route
Filed Route
Departure Airport
Arrival Airport
Navaid (VOR, NDB)
Fix

Horizontal Profiles

Position Reports

Time Latitude Longitude Heading Altitude Ground
Speed
29-Sep-22 12:05 36.333514 -97.910075 306 1310ft 0kts
29-Sep-22 12:06 36.333514 -97.910075 306 1310ft 0kts
29-Sep-22 12:07 36.333514 -97.910075 306 1310ft 0kts
29-Sep-22 12:08 36.333494 -97.910605 234 1310ft 9kts
29-Sep-22 12:09 36.358763 -97.908925 10 1574ft 183kts
29-Sep-22 12:10 36.404263 -97.897674 7 4605ft 161kts
29-Sep-22 12:11 36.461596 -97.890504 339 5041ft 238kts
29-Sep-22 12:12 36.516306 -97.896297 26 8085ft 168kts
29-Sep-22 12:13 36.551101 -97.855818 44 10022ft 212kts
29-Sep-22 12:14 36.606624 -97.811203 40 10200ft 249kts
29-Sep-22 12:15 36.655680 -97.746295 45 10828ft 262kts
29-Sep-22 12:16 36.711184 -97.682992 84 11432ft 79kts
29-Sep-22 12:17 36.730815 -97.634401 63 11870ft 184kts
29-Sep-22 12:18 36.723732 -97.608647 204 9959ft 225kts
29-Sep-22 12:19 36.662629 -97.651029 230 9963ft 250kts
29-Sep-22 12:20 36.672988 -97.622948 77 10487ft 209kts
29-Sep-22 12:21 36.711376 -97.612184 282 10121ft 219kts
29-Sep-22 12:22 36.672552 -97.669170 192 9395ft 248kts
29-Sep-22 12:23 36.596746 -97.672304 181 6035ft 241kts
29-Sep-22 12:24 36.534579 -97.673507 180 5869ft 221kts
29-Sep-22 12:25 36.470583 -97.672791 181 5999ft 240kts
29-Sep-22 12:26 36.397072 -97.676366 181 3997ft 265kts
29-Sep-22 12:27 36.325794 -97.676363 180 3960ft 249kts
29-Sep-22 12:28 36.255949 -97.674717 176 3946ft 253kts
29-Sep-22 12:29 36.193229 -97.702093 222 3267ft 249kts
29-Sep-22 12:30 36.172767 -97.766684 272 3138ft 208kts
29-Sep-22 12:31 36.172515 -97.836857 273 3110ft 201kts
29-Sep-22 12:32 36.129711 -97.862576 182 3064ft 213kts
29-Sep-22 12:33 36.123158 -97.815113 10 3100ft 184kts
29-Sep-22 12:34 36.171833 -97.794569 352 3184ft 185kts
29-Sep-22 12:35 36.224051 -97.793643 1 3006ft 199kts
29-Sep-22 12:36 36.273731 -97.789986 358 2909ft 135kts
29-Sep-22 12:37 36.305097 -97.791333 357 2259ft 107kts
29-Sep-22 12:38 36.332626 -97.791203 359 1804ft 94kts
29-Sep-22 12:39 36.358911 -97.791101 359 1303ft 99kts
29-Sep-22 12:40 36.389275 -97.790377 2 2116ft 146kts
29-Sep-22 12:41 36.399285 -97.741054 91 3121ft 209kts
29-Sep-22 12:42 36.395571 -97.667667 100 2848ft 210kts
29-Sep-22 12:43 36.342188 -97.655482 172 2997ft 217kts
29-Sep-22 12:44 36.281540 -97.656633 179 2748ft 220kts
29-Sep-22 12:45 36.224692 -97.664367 229 3066ft 199kts
29-Sep-22 12:46 36.188276 -97.720102 231 2829ft 210kts
29-Sep-22 12:47 36.177063 -97.782256 318 3116ft 187kts
29-Sep-22 12:48 36.228230 -97.791716 358 3113ft 194kts
29-Sep-22 12:49 36.282679 -97.791418 358 2947ft 196kts
29-Sep-22 12:50 36.321324 -97.791167 359 2054ft 112kts
29-Sep-22 12:51 36.349630 -97.791181 359 1475ft 103kts
29-Sep-22 12:52 36.377816 -97.790835 0 1350ft 137kts
29-Sep-22 12:53 36.422548 -97.796015 278 2638ft 219kts
29-Sep-22 12:54 36.395849 -97.845962 181 3184ft 218kts
29-Sep-22 12:55 36.333518 -97.849856 180 2838ft 216kts
29-Sep-22 12:56 36.274544 -97.849320 182 2988ft 214kts
29-Sep-22 12:57 36.245167 -97.889395 278 2329ft 189kts
29-Sep-22 12:58 36.288365 -97.911352 357 1776ft 145kts
29-Sep-22 12:59 36.317572 -97.911193 359 1678ft 99kts
29-Sep-22 13:00 36.342509 -97.910964 359 1310ft 55kts
29-Sep-22 13:01 36.346659 -97.910134 89 1310ft 0kts

Navigation Log

Ident Type
Flight plan parsing failed, navigation log unavailable